createdAt,value
2018-06-20T00:00:28.922Z,38.10
2018-06-20T00:01:32.289Z,38.00
2018-06-20T00:02:35.628Z,38.10
2018-06-20T00:03:39.081Z,38.10
2018-06-20T00:04:42.501Z,38.10
2018-06-20T00:05:45.833Z,38.10
2018-06-20T00:06:49.236Z,38.10
2018-06-20T00:07:52.609Z,38.80
2018-06-20T00:08:55.988Z,38.20
2018-06-20T00:09:59.633Z,38.30
2018-06-20T00:11:03.096Z,38.30
2018-06-20T00:12:06.504Z,38.20
2018-06-20T00:14:13.116Z,38.20
2018-06-20T00:15:16.469Z,38.30
2018-06-20T00:16:20.600Z,38.10
2018-06-20T00:17:24.037Z,38.20
2018-06-20T00:18:27.385Z,38.20
2018-06-20T00:19:30.873Z,38.30
2018-06-20T00:20:34.405Z,38.30
2018-06-20T00:21:37.844Z,38.30
2018-06-20T00:22:41.276Z,38.30
2018-06-20T00:23:44.665Z,38.30
2018-06-20T00:24:48.093Z,38.20
2018-06-20T00:25:51.432Z,38.30
2018-06-20T00:26:54.808Z,38.20
2018-06-20T00:27:58.124Z,38.10
2018-06-20T00:29:01.584Z,38.10
2018-06-20T00:30:05.426Z,38.10
2018-06-20T00:31:08.781Z,38.40
2018-06-20T00:32:12.188Z,38.20
2018-06-20T00:33:15.569Z,38.10
2018-06-20T00:35:22.276Z,38.20
2018-06-20T00:36:25.771Z,38.10
2018-06-20T00:37:30.073Z,38.00
2018-06-20T00:38:33.859Z,38.10
2018-06-20T00:39:37.417Z,38.00
2018-06-20T00:40:40.932Z,38.00
2018-06-20T00:41:44.324Z,38.10
2018-06-20T00:42:47.642Z,38.10
2018-06-20T00:43:51.090Z,38.10
2018-06-20T00:44:54.542Z,38.00
2018-06-20T00:45:57.988Z,38.10
2018-06-20T00:47:01.352Z,38.20
2018-06-20T00:48:04.823Z,38.10
2018-06-20T00:49:08.401Z,38.80
2018-06-20T00:50:11.704Z,38.20
2018-06-20T00:51:15.156Z,38.10
2018-06-20T00:53:21.565Z,37.60
2018-06-20T00:54:24.972Z,38.10
2018-06-20T00:55:39.679Z,38.20
2018-06-20T00:56:43.299Z,38.10
2018-06-20T00:57:46.760Z,38.20
2018-06-20T01:00:56.315Z,38.30
2018-06-20T01:02:02.294Z,38.40
2018-06-20T01:03:06.053Z,38.40
2018-06-20T01:04:09.755Z,38.40
2018-06-20T01:05:13.126Z,38.50
2018-06-20T01:06:16.646Z,38.60
2018-06-20T01:07:20.072Z,38.70
2018-06-20T01:08:23.536Z,38.60
2018-06-20T01:09:27.024Z,38.60
2018-06-20T01:10:30.382Z,38.70
2018-06-20T01:11:33.797Z,38.60
2018-06-20T01:12:37.781Z,38.60
2018-06-20T01:13:41.248Z,38.40
2018-06-20T01:14:44.635Z,38.50
2018-06-20T01:15:48.009Z,38.40
2018-06-20T01:16:51.348Z,38.20
2018-06-20T01:17:54.681Z,38.30
2018-06-20T01:18:58.098Z,38.20
2018-06-20T01:20:01.433Z,38.20
2018-06-20T01:21:04.793Z,38.40
2018-06-20T01:22:08.206Z,38.20
2018-06-20T01:23:11.601Z,38.30
2018-06-20T01:24:15.096Z,38.30
2018-06-20T01:25:18.613Z,38.10
2018-06-20T01:26:21.965Z,38.10
2018-06-20T01:27:25.555Z,38.10
2018-06-20T01:28:28.911Z,38.30
2018-06-20T01:29:32.325Z,38.20
2018-06-20T01:30:35.661Z,38.20
2018-06-20T01:31:39.030Z,38.20
2018-06-20T01:32:42.599Z,38.10
2018-06-20T01:33:45.932Z,38.10
2018-06-20T01:34:49.363Z,38.20
2018-06-20T01:35:52.688Z,38.10
2018-06-20T01:36:56.021Z,38.10
2018-06-20T01:37:59.605Z,38.10
2018-06-20T01:39:03.017Z,38.20
2018-06-20T01:40:06.548Z,38.20
2018-06-20T01:41:09.985Z,38.20
2018-06-20T01:42:13.360Z,38.20
2018-06-20T01:43:16.702Z,38.20
2018-06-20T01:44:20.205Z,38.20
2018-06-20T01:45:23.751Z,38.10
2018-06-20T01:46:27.117Z,38.10
2018-06-20T01:47:30.552Z,38.10
2018-06-20T01:48:33.866Z,38.10
2018-06-20T01:49:37.255Z,38.00
2018-06-20T01:51:43.674Z,38.10
2018-06-20T01:52:47.169Z,38.10
2018-06-20T01:53:50.640Z,38.00
2018-06-20T01:54:54.083Z,38.00
2018-06-20T01:55:57.693Z,38.00
2018-06-20T01:57:01.002Z,38.00
2018-06-20T01:58:04.400Z,38.10
2018-06-20T01:59:07.776Z,38.00
2018-06-20T02:00:11.240Z,38.10
2018-06-20T02:01:14.751Z,38.10
2018-06-20T02:02:19.917Z,38.10
2018-06-20T02:03:23.368Z,38.10
2018-06-20T02:04:27.119Z,38.00
2018-06-20T02:05:30.600Z,38.10
2018-06-20T02:06:34.326Z,38.80
2018-06-20T02:07:37.714Z,38.10
2018-06-20T02:08:41.031Z,38.10
2018-06-20T02:09:44.409Z,38.10
2018-06-20T02:10:47.744Z,38.20
2018-06-20T02:11:51.207Z,38.10
2018-06-20T02:12:54.586Z,38.20
2018-06-20T02:13:57.951Z,38.20
2018-06-20T02:15:01.315Z,38.20
2018-06-20T02:16:04.729Z,38.20
2018-06-20T02:17:08.082Z,38.20
2018-06-20T02:18:11.557Z,38.20
2018-06-20T02:19:14.917Z,38.80
2018-06-20T02:21:21.741Z,38.20
2018-06-20T02:22:25.092Z,37.70
2018-06-20T02:23:28.580Z,38.20
2018-06-20T02:25:34.980Z,38.20
2018-06-20T02:26:38.371Z,38.10
2018-06-20T02:27:41.805Z,38.20
2018-06-20T02:28:45.140Z,38.20
2018-06-20T02:29:48.564Z,38.20
2018-06-20T02:30:52.052Z,38.20
2018-06-20T02:31:55.796Z,38.90
2018-06-20T02:32:59.204Z,38.20
2018-06-20T02:34:02.607Z,38.20
2018-06-20T02:35:06.681Z,38.20
2018-06-20T02:36:15.292Z,38.20
2018-06-20T02:37:18.657Z,38.30
2018-06-20T02:38:22.096Z,38.30
2018-06-20T02:39:25.736Z,38.30
2018-06-20T02:40:29.109Z,38.40
2018-06-20T02:41:32.730Z,38.40
2018-06-20T02:42:36.026Z,38.30
2018-06-20T02:43:39.386Z,38.30
2018-06-20T02:44:42.775Z,38.30
2018-06-20T02:45:46.097Z,38.30
2018-06-20T02:46:49.444Z,38.30
2018-06-20T02:47:57.036Z,38.30
2018-06-20T02:49:00.485Z,38.20
2018-06-20T02:50:03.862Z,38.10
2018-06-20T02:51:07.218Z,38.30
2018-06-20T02:52:10.521Z,38.20
2018-06-20T02:53:13.819Z,38.30
2018-06-20T02:54:17.155Z,38.30
2018-06-20T02:55:20.576Z,38.30
2018-06-20T02:56:24.043Z,38.40
2018-06-20T02:57:27.790Z,38.40
2018-06-20T02:58:31.100Z,38.40
2018-06-20T02:59:34.534Z,38.50
2018-06-20T03:00:37.895Z,38.50
2018-06-20T03:01:41.198Z,38.50
2018-06-20T03:02:44.556Z,38.40
2018-06-20T03:03:47.901Z,38.40
2018-06-20T03:04:51.265Z,38.40
2018-06-20T03:05:54.622Z,38.50
2018-06-20T03:06:57.978Z,38.50
2018-06-20T03:08:01.417Z,38.40
2018-06-20T03:09:13.106Z,38.40
2018-06-20T03:10:16.752Z,38.40
2018-06-20T03:11:20.105Z,38.50
2018-06-20T03:12:23.477Z,38.50
2018-06-20T03:13:26.792Z,38.50
2018-06-20T03:14:31.001Z,39.20
2018-06-20T03:15:34.440Z,38.40
2018-06-20T03:16:37.779Z,38.40
2018-06-20T03:17:41.189Z,38.50
2018-06-20T03:18:44.525Z,38.50
2018-06-20T03:19:47.882Z,38.50
2018-06-20T03:20:51.241Z,38.50
2018-06-20T03:21:54.985Z,38.60
2018-06-20T03:22:58.695Z,38.50
2018-06-20T03:24:02.049Z,38.60
2018-06-20T03:25:05.901Z,38.50
2018-06-20T03:26:09.252Z,38.50
2018-06-20T03:27:12.814Z,38.50
2018-06-20T03:28:16.341Z,38.60
2018-06-20T03:29:19.722Z,38.60
2018-06-20T03:30:23.090Z,38.70
2018-06-20T03:31:26.713Z,38.70
2018-06-20T03:32:31.101Z,38.70
2018-06-20T03:33:34.702Z,38.80
2018-06-20T03:34:38.204Z,38.70
2018-06-20T03:35:41.779Z,38.60
2018-06-20T03:36:45.212Z,38.60
2018-06-20T03:37:48.759Z,38.60
2018-06-20T03:38:52.158Z,38.60
2018-06-20T03:39:55.651Z,38.70
2018-06-20T03:40:58.987Z,38.70
2018-06-20T03:43:05.679Z,38.70
2018-06-20T03:44:09.281Z,38.70
2018-06-20T03:45:12.677Z,38.70
2018-06-20T03:46:16.024Z,38.70
2018-06-20T03:47:19.449Z,38.80
2018-06-20T03:48:22.825Z,38.80
2018-06-20T03:49:26.208Z,38.70
2018-06-20T03:50:29.643Z,38.70
2018-06-20T03:51:33.498Z,39.30
2018-06-20T03:52:37.000Z,38.50
2018-06-20T03:53:40.404Z,38.70
2018-06-20T03:54:43.786Z,39.10
2018-06-20T03:55:47.240Z,38.90
2018-06-20T03:56:50.610Z,38.80
2018-06-20T03:57:54.024Z,38.70
2018-06-20T03:58:57.377Z,38.50
2018-06-20T04:00:00.722Z,38.50
2018-06-20T04:01:04.515Z,38.50
2018-06-20T04:02:08.004Z,38.40
2018-06-20T04:03:11.320Z,38.40
2018-06-20T04:04:14.745Z,38.50
2018-06-20T04:05:18.086Z,38.50
2018-06-20T04:06:21.566Z,38.50
2018-06-20T04:07:25.023Z,38.50
2018-06-20T04:08:28.392Z,38.50
2018-06-20T04:09:31.905Z,38.60
2018-06-20T04:10:35.454Z,38.60
2018-06-20T04:11:38.982Z,38.60
2018-06-20T04:12:42.374Z,38.60
2018-06-20T04:13:45.710Z,38.70
2018-06-20T04:14:49.045Z,38.60
2018-06-20T04:15:52.463Z,38.60
2018-06-20T04:16:55.803Z,38.60
2018-06-20T04:17:59.168Z,38.60
2018-06-20T04:19:02.763Z,38.70
2018-06-20T04:20:06.245Z,38.60
2018-06-20T04:21:11.366Z,38.70
2018-06-20T04:22:14.752Z,38.70
2018-06-20T04:23:18.096Z,38.70
2018-06-20T04:24:21.443Z,38.70
2018-06-20T04:25:24.843Z,38.70
2018-06-20T04:26:28.298Z,38.70
2018-06-20T04:27:31.867Z,38.60
2018-06-20T04:28:35.574Z,38.70
2018-06-20T04:29:39.084Z,38.70
2018-06-20T04:30:42.598Z,38.60
2018-06-20T04:31:46.101Z,38.70
2018-06-20T04:32:49.441Z,38.80
2018-06-20T04:33:52.823Z,39.10
2018-06-20T04:34:56.203Z,38.80
2018-06-20T04:35:59.771Z,38.80
2018-06-20T04:37:03.138Z,38.80
2018-06-20T04:38:07.475Z,38.90
2018-06-20T04:39:11.758Z,38.90
2018-06-20T04:40:15.924Z,38.90
2018-06-20T04:41:19.386Z,38.90
2018-06-20T04:42:22.763Z,38.90
2018-06-20T04:43:26.199Z,39.00
2018-06-20T04:44:29.566Z,39.00
2018-06-20T04:45:32.881Z,39.00
2018-06-20T04:46:36.213Z,39.70
2018-06-20T04:47:39.566Z,39.00
2018-06-20T04:48:43.024Z,39.00
2018-06-20T04:49:46.473Z,39.00
2018-06-20T04:50:49.961Z,39.80
2018-06-20T04:51:53.574Z,39.20
2018-06-20T04:52:56.944Z,39.30
2018-06-20T04:54:00.313Z,39.20
2018-06-20T04:55:03.690Z,39.30
2018-06-20T04:56:07.078Z,39.30
2018-06-20T04:57:10.717Z,39.50
2018-06-20T04:58:14.905Z,39.30
2018-06-20T04:59:18.485Z,39.20
2018-06-20T05:00:21.934Z,39.20
2018-06-20T05:01:25.280Z,39.10
2018-06-20T05:02:28.609Z,39.20
2018-06-20T05:03:31.948Z,39.40
2018-06-20T05:04:35.429Z,39.30
2018-06-20T05:05:38.813Z,39.50
2018-06-20T05:06:42.188Z,39.40
2018-06-20T05:07:45.816Z,39.40
2018-06-20T05:08:49.450Z,39.40
2018-06-20T05:09:55.124Z,39.50
2018-06-20T05:10:58.525Z,39.50
2018-06-20T05:12:01.852Z,39.70
2018-06-20T05:13:05.613Z,39.70
2018-06-20T05:14:08.965Z,40.30
2018-06-20T05:15:12.444Z,39.60
2018-06-20T05:16:15.765Z,39.60
2018-06-20T05:17:19.737Z,39.50
2018-06-20T05:18:23.269Z,39.50
2018-06-20T05:19:26.840Z,39.60
2018-06-20T05:20:30.357Z,39.50
2018-06-20T05:21:33.807Z,39.60
2018-06-20T05:22:37.143Z,40.20
2018-06-20T05:23:40.441Z,39.50
2018-06-20T05:24:43.905Z,39.80
2018-06-20T05:25:47.308Z,39.60
2018-06-20T05:27:53.940Z,39.50
2018-06-20T05:28:57.334Z,39.50
2018-06-20T05:30:00.796Z,39.40
2018-06-20T05:31:04.195Z,39.30
2018-06-20T05:32:07.572Z,39.40
2018-06-20T05:33:10.892Z,39.30
2018-06-20T05:34:14.309Z,39.30
2018-06-20T05:35:17.833Z,39.30
2018-06-20T05:36:21.370Z,39.30
2018-06-20T05:37:24.767Z,39.50
2018-06-20T05:38:28.114Z,40.20
2018-06-20T05:39:31.480Z,39.50
2018-06-20T05:40:34.825Z,39.30
2018-06-20T05:41:38.487Z,39.30
2018-06-20T05:42:41.904Z,39.20
2018-06-20T05:43:45.365Z,39.20
2018-06-20T05:44:48.750Z,39.20
2018-06-20T05:46:56.488Z,39.30
2018-06-20T05:48:00.412Z,39.50
2018-06-20T05:49:03.854Z,39.90
2018-06-20T05:50:07.303Z,40.00
2018-06-20T05:51:10.643Z,40.10
2018-06-20T05:52:14.025Z,40.00
2018-06-20T05:53:17.791Z,39.90
2018-06-20T05:54:21.333Z,40.00
2018-06-20T05:55:24.793Z,39.90
2018-06-20T05:56:28.245Z,39.80
2018-06-20T05:57:31.682Z,39.70
2018-06-20T05:58:35.458Z,39.70
2018-06-20T05:59:38.838Z,39.70
2018-06-20T06:00:42.545Z,39.60
2018-06-20T06:01:46.005Z,39.70
2018-06-20T06:02:49.495Z,39.60
2018-06-20T06:03:52.878Z,39.60
2018-06-20T06:06:09.284Z,39.70
2018-06-20T06:07:12.703Z,39.70
2018-06-20T06:08:16.078Z,39.90
2018-06-20T06:09:19.697Z,39.90
2018-06-20T06:10:23.028Z,39.90
2018-06-20T06:11:26.690Z,39.90
2018-06-20T06:12:30.096Z,40.00
2018-06-20T06:14:36.940Z,40.00
2018-06-20T06:15:40.318Z,40.10
2018-06-20T06:16:43.653Z,40.10
2018-06-20T06:17:47.101Z,40.10
2018-06-20T06:18:50.428Z,40.20
2018-06-20T06:19:53.914Z,40.10
2018-06-20T06:20:57.451Z,40.10
2018-06-20T06:22:00.969Z,39.90
2018-06-20T06:23:04.799Z,40.00
2018-06-20T06:24:08.136Z,40.10
2018-06-20T06:25:11.522Z,40.10
2018-06-20T06:26:15.552Z,40.10
2018-06-20T06:27:19.077Z,40.10
2018-06-20T06:28:22.412Z,40.20
2018-06-20T06:29:25.900Z,40.20
2018-06-20T06:30:29.402Z,40.30
2018-06-20T06:31:32.839Z,40.30
2018-06-20T06:32:36.294Z,40.30
2018-06-20T06:33:39.696Z,40.30
2018-06-20T06:34:43.065Z,40.20
2018-06-20T06:35:46.416Z,40.20
2018-06-20T06:36:49.913Z,40.30
2018-06-20T06:37:53.473Z,40.30
2018-06-20T06:38:56.824Z,40.40
2018-06-20T06:40:00.407Z,41.10
2018-06-20T06:41:03.846Z,40.30
2018-06-20T06:42:07.390Z,40.20
2018-06-20T06:43:11.086Z,40.20
2018-06-20T06:44:14.444Z,40.10
2018-06-20T06:45:17.817Z,40.10
2018-06-20T06:46:21.158Z,40.10
2018-06-20T06:47:24.548Z,40.10
2018-06-20T06:48:28.017Z,40.20
2018-06-20T06:49:31.750Z,40.10
2018-06-20T06:50:36.016Z,40.10
2018-06-20T06:51:39.530Z,40.10
2018-06-20T06:52:42.887Z,40.10
2018-06-20T06:53:46.265Z,40.30
2018-06-20T06:54:49.709Z,40.30
2018-06-20T06:55:53.021Z,40.40
2018-06-20T06:56:56.404Z,40.50
2018-06-20T06:58:00.256Z,40.50
2018-06-20T06:59:03.954Z,40.40
2018-06-20T07:00:07.426Z,40.30
2018-06-20T07:01:10.768Z,40.30
2018-06-20T07:02:14.156Z,40.60
2018-06-20T07:03:17.488Z,40.70
2018-06-20T07:04:20.821Z,40.40
2018-06-20T07:05:24.345Z,40.40
2018-06-20T07:06:27.707Z,40.40
2018-06-20T07:07:31.453Z,41.00
2018-06-20T07:08:34.917Z,40.30
2018-06-20T07:09:38.486Z,40.30
2018-06-20T07:10:41.809Z,40.30
2018-06-20T07:11:45.368Z,40.20
2018-06-20T07:12:53.057Z,40.10
2018-06-20T07:13:56.404Z,40.00
2018-06-20T07:16:02.889Z,40.10
2018-06-20T07:17:06.276Z,40.00
2018-06-20T07:18:09.984Z,40.10
2018-06-20T07:19:13.461Z,40.10
2018-06-20T07:20:17.053Z,40.20
2018-06-20T07:21:20.537Z,40.30
2018-06-20T07:22:24.036Z,40.30
2018-06-20T07:23:27.626Z,40.30
2018-06-20T07:24:31.045Z,40.30
2018-06-20T07:25:34.454Z,40.10
2018-06-20T07:26:38.064Z,40.10
2018-06-20T07:28:44.628Z,41.00
2018-06-20T07:29:48.047Z,40.30
2018-06-20T07:30:51.413Z,40.30
2018-06-20T07:31:54.900Z,40.40
2018-06-20T07:32:58.492Z,40.20
2018-06-20T07:34:01.954Z,40.10
2018-06-20T07:35:05.356Z,40.10
2018-06-20T07:36:09.277Z,40.20
2018-06-20T07:37:12.765Z,40.10
2018-06-20T07:38:16.249Z,40.20
2018-06-20T07:39:19.583Z,40.40
2018-06-20T07:40:23.026Z,40.40
2018-06-20T07:41:26.364Z,40.30
2018-06-20T07:42:29.773Z,40.20
2018-06-20T07:43:33.189Z,40.20
2018-06-20T07:44:36.588Z,40.10
2018-06-20T07:45:40.169Z,40.20
2018-06-20T07:46:43.702Z,40.40
2018-06-20T07:47:47.165Z,40.10
2018-06-20T07:48:50.594Z,40.20
2018-06-20T07:50:57.358Z,40.40
2018-06-20T07:53:03.849Z,40.30
2018-06-20T07:54:07.322Z,40.20
2018-06-20T07:56:13.862Z,40.30
2018-06-20T07:57:17.372Z,40.20
2018-06-20T07:58:26.060Z,40.20
2018-06-20T07:59:34.669Z,40.30
2018-06-20T08:00:43.367Z,40.30
2018-06-20T08:02:09.254Z,40.50
2018-06-20T08:03:18.592Z,40.40
2018-06-20T08:04:27.441Z,40.60
2018-06-20T08:05:36.310Z,41.20
2018-06-20T08:06:47.831Z,40.70
2018-06-20T08:07:56.690Z,40.70
2018-06-20T08:10:07.313Z,40.80
2018-06-20T08:12:24.739Z,41.00
2018-06-20T08:13:33.477Z,41.20
2018-06-20T08:14:42.204Z,41.40
2018-06-20T08:15:50.929Z,41.40
2018-06-20T08:16:59.741Z,41.30
2018-06-20T08:18:08.385Z,41.20
2018-06-20T08:19:17.244Z,41.00
2018-06-20T08:20:23.418Z,40.90
2018-06-20T08:21:26.784Z,41.00
2018-06-20T08:22:30.154Z,41.00
2018-06-20T08:23:33.577Z,41.10
2018-06-20T08:24:41.644Z,41.10
2018-06-20T08:25:46.029Z,41.00
2018-06-20T08:26:49.567Z,40.80
2018-06-20T08:27:53.058Z,40.70
2018-06-20T08:28:56.425Z,40.80
2018-06-20T08:30:01.352Z,40.60
2018-06-20T08:31:04.742Z,40.60
2018-06-20T08:32:08.083Z,40.70
2018-06-20T08:33:11.621Z,40.50
2018-06-20T08:34:15.709Z,40.80
2018-06-20T08:35:19.085Z,40.50
2018-06-20T08:36:22.503Z,40.50
2018-06-20T08:37:25.860Z,40.90
2018-06-20T08:38:29.433Z,41.10
2018-06-20T08:39:32.811Z,41.20
2018-06-20T08:40:36.231Z,40.80
2018-06-20T08:41:39.736Z,40.70
2018-06-20T08:42:43.108Z,40.60
2018-06-20T08:43:46.907Z,40.50
2018-06-20T08:44:51.478Z,40.40
2018-06-20T08:45:55.196Z,40.50
2018-06-20T08:46:58.550Z,40.30
2018-06-20T08:48:01.909Z,40.30
2018-06-20T08:49:05.357Z,41.00
2018-06-20T08:50:08.745Z,40.50
2018-06-20T08:51:12.096Z,40.40
2018-06-20T08:52:15.814Z,40.50
2018-06-20T08:53:19.519Z,40.50
2018-06-20T08:54:23.201Z,40.10
2018-06-20T08:56:29.716Z,40.00
2018-06-20T08:57:33.081Z,39.90
2018-06-20T08:58:36.825Z,40.10
2018-06-20T08:59:40.266Z,40.30
2018-06-20T09:00:49.070Z,40.90
2018-06-20T09:01:52.465Z,40.10
2018-06-20T09:02:56.489Z,40.00
2018-06-20T09:04:05.238Z,39.90
2018-06-20T09:05:14.065Z,40.10
2018-06-20T09:06:22.792Z,40.10
2018-06-20T09:07:31.713Z,40.20
2018-06-20T09:08:40.493Z,40.30
2018-06-20T09:09:49.128Z,41.00
2018-06-20T09:10:57.976Z,40.80
2018-06-20T09:12:06.609Z,40.70
2018-06-20T09:13:15.272Z,40.50
2018-06-20T09:14:18.750Z,40.40
2018-06-20T09:15:27.555Z,40.30
2018-06-20T09:16:36.278Z,40.20
2018-06-20T09:17:45.073Z,40.20
2018-06-20T09:18:53.791Z,40.10
2018-06-20T09:19:58.017Z,40.00
2018-06-20T09:21:01.452Z,40.00
2018-06-20T09:22:04.866Z,39.80
2018-06-20T09:23:08.341Z,40.00
2018-06-20T09:24:11.842Z,39.60
2018-06-20T09:25:15.366Z,39.70
2018-06-20T09:26:18.921Z,39.70
2018-06-20T09:27:22.446Z,39.70
2018-06-20T09:28:25.914Z,39.60
2018-06-20T09:29:29.325Z,39.60
2018-06-20T09:30:32.657Z,39.50
2018-06-20T09:32:39.617Z,39.10
2018-06-20T09:33:43.128Z,39.00
2018-06-20T09:34:46.653Z,39.00
2018-06-20T09:35:50.230Z,38.80
2018-06-20T09:36:53.713Z,38.90
2018-06-20T09:37:57.110Z,38.90
2018-06-20T09:39:00.914Z,38.90
2018-06-20T09:40:04.302Z,38.90
2018-06-20T09:41:07.617Z,39.00
2018-06-20T09:42:11.201Z,39.00
2018-06-20T09:43:14.567Z,39.30
2018-06-20T09:44:17.969Z,39.00
2018-06-20T09:45:21.497Z,38.90
2018-06-20T09:46:24.897Z,39.10
2018-06-20T09:47:28.241Z,38.70
2018-06-20T09:48:31.804Z,38.70
2018-06-20T09:49:35.358Z,38.80
2018-06-20T09:50:44.181Z,38.80
2018-06-20T09:51:47.670Z,39.30
2018-06-20T09:52:51.125Z,39.10
2018-06-20T09:53:54.541Z,38.40
2018-06-20T09:54:57.993Z,38.80
2018-06-20T09:56:01.357Z,38.70
2018-06-20T09:57:04.893Z,38.40
2018-06-20T09:58:08.447Z,38.30
2018-06-20T10:00:26.159Z,38.40
2018-06-20T10:01:34.979Z,38.60
2018-06-20T10:02:43.885Z,38.80
2018-06-20T10:03:52.719Z,38.80
2018-06-20T10:05:01.457Z,39.00
2018-06-20T10:06:10.198Z,39.80
2018-06-20T10:07:18.785Z,39.20
2018-06-20T10:08:27.612Z,39.00
2018-06-20T10:09:36.412Z,38.90
2018-06-20T10:10:45.369Z,38.90
2018-06-20T10:11:54.333Z,39.40
2018-06-20T10:13:03.121Z,38.90
2018-06-20T10:14:10.945Z,39.70
2018-06-20T10:15:14.331Z,39.20
2018-06-20T10:16:17.889Z,39.50
2018-06-20T10:17:21.346Z,39.20
2018-06-20T10:18:24.881Z,39.40
2018-06-20T10:19:28.332Z,40.30
2018-06-20T10:20:31.740Z,39.80
2018-06-20T10:21:35.216Z,39.50
2018-06-20T10:22:38.837Z,39.30
2018-06-20T10:23:42.236Z,39.00
2018-06-20T10:24:45.713Z,38.90
2018-06-20T10:25:49.126Z,38.80
2018-06-20T10:26:52.550Z,39.10
2018-06-20T10:27:56.485Z,39.70
2018-06-20T10:28:59.869Z,40.30
2018-06-20T10:30:03.266Z,39.60
2018-06-20T10:31:06.859Z,39.00
2018-06-20T10:32:10.356Z,38.60
2018-06-20T10:33:14.204Z,38.50
2018-06-20T10:34:17.799Z,38.60
2018-06-20T10:35:21.425Z,39.40
2018-06-20T10:36:24.971Z,38.50
2018-06-20T10:38:31.517Z,38.70
2018-06-20T10:39:34.936Z,38.70
2018-06-20T10:40:38.435Z,38.90
2018-06-20T10:41:41.801Z,38.50
2018-06-20T10:42:45.260Z,39.30
2018-06-20T10:43:48.597Z,38.90
2018-06-20T10:44:51.977Z,38.70
2018-06-20T10:47:04.708Z,39.60
2018-06-20T10:48:13.160Z,38.70
2018-06-20T10:49:17.970Z,39.30
2018-06-20T10:50:21.462Z,39.70
2018-06-20T10:51:24.879Z,39.10
2018-06-20T10:52:28.278Z,38.90
2018-06-20T10:53:31.854Z,38.70
2018-06-20T10:54:35.349Z,38.70
2018-06-20T10:55:39.568Z,38.40
2018-06-20T10:56:48.225Z,38.20
2018-06-20T10:57:57.113Z,37.70
2018-06-20T10:59:05.883Z,37.60
2018-06-20T11:00:14.625Z,37.50
2018-06-20T11:01:23.314Z,37.40
2018-06-20T11:02:31.978Z,37.20
2018-06-20T11:03:40.961Z,37.50
2018-06-20T11:04:49.694Z,37.10
2018-06-20T11:05:58.632Z,37.00
2018-06-20T11:07:07.469Z,36.50
2018-06-20T11:08:16.203Z,36.20
2018-06-20T11:09:25.085Z,36.20
2018-06-20T11:10:33.930Z,37.90
2018-06-20T11:11:42.654Z,38.70
2018-06-20T11:12:51.510Z,38.20
2018-06-20T11:13:55.042Z,37.30
2018-06-20T11:14:58.951Z,36.90
2018-06-20T11:16:02.353Z,36.50
2018-06-20T11:17:05.789Z,37.80
2018-06-20T11:18:09.142Z,38.70
2018-06-20T11:19:12.556Z,39.40
2018-06-20T11:20:18.297Z,37.30
2018-06-20T11:21:21.655Z,36.80
2018-06-20T11:22:25.010Z,36.00
2018-06-20T11:23:28.835Z,36.10
2018-06-20T11:24:32.205Z,36.00
2018-06-20T11:25:35.565Z,35.60
2018-06-20T11:26:38.952Z,35.50
2018-06-20T11:27:42.555Z,36.20
2018-06-20T11:28:46.100Z,36.10
2018-06-20T11:29:49.715Z,35.80
2018-06-20T11:30:53.714Z,35.80
2018-06-20T11:31:57.355Z,35.10
2018-06-20T11:33:00.901Z,35.10
2018-06-20T11:34:04.304Z,35.00
2018-06-20T11:35:07.877Z,35.00
2018-06-20T11:36:11.592Z,34.80
2018-06-20T11:37:15.033Z,34.60
2018-06-20T11:38:18.511Z,34.50
2018-06-20T11:39:22.036Z,35.00
2018-06-20T11:40:25.396Z,35.00
2018-06-20T11:41:29.838Z,35.50
2018-06-20T11:42:33.198Z,35.30
2018-06-20T11:43:36.549Z,37.00
2018-06-20T11:44:39.909Z,36.30
2018-06-20T11:45:48.824Z,36.30
2018-06-20T11:47:59.468Z,36.30
2018-06-20T11:49:02.985Z,36.30
2018-06-20T11:50:06.510Z,37.00
2018-06-20T11:51:10.169Z,36.70
2018-06-20T11:52:18.959Z,36.30
2018-06-20T11:53:22.922Z,36.00
2018-06-20T11:54:26.278Z,36.00
2018-06-20T11:55:38.044Z,37.00
2018-06-20T11:56:41.432Z,36.00
2018-06-20T11:57:44.986Z,36.70
2018-06-20T11:58:53.729Z,36.00
2018-06-20T12:01:00.273Z,36.00
2018-06-20T12:02:09.085Z,36.00
2018-06-20T12:03:17.900Z,36.50
2018-06-20T12:04:26.713Z,36.20
2018-06-20T12:05:35.552Z,36.90
2018-06-20T12:06:44.270Z,36.00
2018-06-20T12:07:52.971Z,35.80
2018-06-20T12:10:02.466Z,35.90
2018-06-20T12:11:11.825Z,35.90
2018-06-20T12:12:20.600Z,36.70
2018-06-20T12:13:29.401Z,36.80
2018-06-20T12:14:38.402Z,36.60
2018-06-20T12:15:47.965Z,36.50
2018-06-20T12:16:50.612Z,36.40
2018-06-20T12:17:59.505Z,35.90
2018-06-20T12:19:08.453Z,35.90
2018-06-20T12:20:17.297Z,36.00
2018-06-20T12:21:25.946Z,36.00
2018-06-20T12:22:35.013Z,36.00
2018-06-20T12:23:44.227Z,36.00
2018-06-20T12:24:52.968Z,36.00
2018-06-20T12:26:02.683Z,36.00
2018-06-20T12:27:11.481Z,36.00
2018-06-20T12:28:20.809Z,36.00
2018-06-20T12:29:29.497Z,36.00
2018-06-20T12:30:38.213Z,35.60
2018-06-20T12:31:46.989Z,36.00
2018-06-20T12:32:55.792Z,36.00
2018-06-20T12:34:04.483Z,36.20
2018-06-20T12:35:13.196Z,35.50
2018-06-20T12:36:23.214Z,35.90
2018-06-20T12:37:32.048Z,36.00
2018-06-20T12:38:40.903Z,36.00
2018-06-20T12:39:44.605Z,35.90
2018-06-20T12:40:53.475Z,36.00
2018-06-20T12:43:03.653Z,36.00
2018-06-20T12:44:12.327Z,36.00
2018-06-20T12:45:18.118Z,35.80
2018-06-20T12:46:25.119Z,35.80
2018-06-20T12:47:33.382Z,35.90
2018-06-20T12:48:36.725Z,36.00
2018-06-20T12:49:44.370Z,36.00
2018-06-20T12:50:47.959Z,36.10
2018-06-20T12:51:51.340Z,36.10
2018-06-20T12:52:54.985Z,36.10
2018-06-20T12:53:58.603Z,36.10
2018-06-20T12:55:01.977Z,36.20
2018-06-20T12:56:05.543Z,35.80
2018-06-20T12:57:09.070Z,35.80
2018-06-20T12:58:12.461Z,35.80
2018-06-20T12:59:16.001Z,35.70
2018-06-20T13:00:19.400Z,35.20
2018-06-20T13:01:22.825Z,35.10
2018-06-20T13:02:26.284Z,35.00
2018-06-20T13:03:29.888Z,35.10
2018-06-20T13:04:33.410Z,35.20
2018-06-20T13:05:37.032Z,35.20
2018-06-20T13:06:40.568Z,35.10
2018-06-20T13:07:44.065Z,35.10
2018-06-20T13:08:47.396Z,35.20
2018-06-20T13:10:53.789Z,35.00
2018-06-20T13:11:57.177Z,35.00
2018-06-20T13:13:00.792Z,34.90
2018-06-20T13:14:04.332Z,35.00
2018-06-20T13:15:07.681Z,34.80
2018-06-20T13:16:11.077Z,34.90
2018-06-20T13:17:14.492Z,34.90
2018-06-20T13:18:18.163Z,34.90
2018-06-20T13:19:21.538Z,34.90
2018-06-20T13:20:24.946Z,34.80
2018-06-20T13:21:29.207Z,34.80
2018-06-20T13:22:32.521Z,34.70
2018-06-20T13:23:35.936Z,34.40
2018-06-20T13:25:42.628Z,34.20
2018-06-20T13:26:46.474Z,34.80
2018-06-20T13:27:50.253Z,34.60
2018-06-20T13:28:54.550Z,34.60
2018-06-20T13:30:03.655Z,34.70
2018-06-20T13:31:14.558Z,34.70
2018-06-20T13:32:23.480Z,36.20
2018-06-20T13:33:32.401Z,36.00
2018-06-20T13:34:41.782Z,35.80
2018-06-20T13:35:51.269Z,35.20
2018-06-20T13:37:00.122Z,34.90
2018-06-20T13:38:08.933Z,34.80
2018-06-20T13:39:17.545Z,34.80
2018-06-20T13:40:26.251Z,34.90
2018-06-20T13:41:34.913Z,34.70
2018-06-20T13:42:43.726Z,34.70
2018-06-20T13:45:00.182Z,34.50
2018-06-20T13:46:08.893Z,34.30
2018-06-20T13:47:17.991Z,34.20
2018-06-20T13:48:29.355Z,34.10
2018-06-20T13:49:32.703Z,34.00
2018-06-20T13:50:37.161Z,34.20
2018-06-20T13:51:40.864Z,34.10
2018-06-20T13:52:44.426Z,34.10
2018-06-20T13:53:47.843Z,33.90
2018-06-20T13:54:51.375Z,33.60
2018-06-20T13:56:59.229Z,33.30
2018-06-20T13:58:02.661Z,33.10
2018-06-20T13:59:06.304Z,33.30
2018-06-20T14:00:09.881Z,33.30
2018-06-20T14:01:13.243Z,33.20
2018-06-20T14:02:20.869Z,32.90
2018-06-20T14:03:24.229Z,34.10
2018-06-20T14:04:27.585Z,33.70
2018-06-20T14:05:31.388Z,33.60
2018-06-20T14:06:35.035Z,34.20
2018-06-20T14:07:39.438Z,33.60
2018-06-20T14:08:44.323Z,33.50
2018-06-20T14:10:50.881Z,33.10
2018-06-20T14:11:54.345Z,33.20
2018-06-20T14:12:57.709Z,33.00
2018-06-20T14:14:01.072Z,33.00
2018-06-20T14:15:04.538Z,32.90
2018-06-20T14:16:08.006Z,32.90
2018-06-20T14:17:11.320Z,33.00
2018-06-20T14:18:14.794Z,32.80
2018-06-20T14:19:22.357Z,32.50
2018-06-20T14:20:31.229Z,32.50
2018-06-20T14:21:35.714Z,32.40
2018-06-20T14:22:39.734Z,32.40
2018-06-20T14:23:43.094Z,32.50
2018-06-20T14:24:46.589Z,33.50
2018-06-20T14:25:49.949Z,32.60